Seven Lakes, North Carolina
Current Conditions -  °F | °C
As of 2:55 PM on Tuesday 21 Oct 2014 (Local Time) from KSOP Reporting Station
Broken Clouds Broken Clouds  
Wind Chill: 72°   Ceiling: 5500
Heat Index: 72°   Visibility: 10mi
Dew Point: 48°   Wind: 5mph
Humidity: 43%   Direction: 320°NW
Pressure: 29.85"   Gusts: NA
Location:  35.2431°N, 79.5385°W
Report Text: KSOP 211855Z AUTO 32004KT 10SM BKN055 22/09 A2985 RMK AO1
Loading
Personal Weather Stations






























Interactive Weather Map
Tropical Storm Tracking
New forecast layout! Learn more

10-Day Weather Forecast

Advertisements
Track Severe Weather on mobile